sensor_id;sensor_type;location;lat;lon;timestamp;temperature;humidity
18444;DHT22;9350;53.176;8.194;2022-12-18T00:00:46;-2.10;99.90
18444;DHT22;9350;53.176;8.194;2022-12-18T00:03:14;-2.00;99.90
18444;DHT22;9350;53.176;8.194;2022-12-18T00:05:46;-2.00;99.90
18444;DHT22;9350;53.176;8.194;2022-12-18T00:08:13;-2.00;99.90
18444;DHT22;9350;53.176;8.194;2022-12-18T00:10:40;-2.00;99.90
18444;DHT22;9350;53.176;8.194;2022-12-18T00:13:08;-2.00;99.90
18444;DHT22;9350;53.176;8.194;2022-12-18T00:15:35;-1.90;99.90
18444;DHT22;9350;53.176;8.194;2022-12-18T00:18:02;-1.90;99.90
18444;DHT22;9350;53.176;8.194;2022-12-18T00:20:29;-2.00;99.90
18444;DHT22;9350;53.176;8.194;2022-12-18T00:22:56;-2.00;99.90
18444;DHT22;9350;53.176;8.194;2022-12-18T00:25:23;-2.00;99.90
18444;DHT22;9350;53.176;8.194;2022-12-18T00:27:50;-2.00;99.90
18444;DHT22;9350;53.176;8.194;2022-12-18T00:30:18;-2.00;99.90
18444;DHT22;9350;53.176;8.194;2022-12-18T00:32:44;-2.00;99.90
18444;DHT22;9350;53.176;8.194;2022-12-18T00:35:11;-1.90;99.90
18444;DHT22;9350;53.176;8.194;2022-12-18T00:37:38;-2.00;99.90
18444;DHT22;9350;53.176;8.194;2022-12-18T00:40:06;-2.00;99.90
18444;DHT22;9350;53.176;8.194;2022-12-18T00:42:36;-2.00;99.90
18444;DHT22;9350;53.176;8.194;2022-12-18T00:45:21;-2.10;99.90
18444;DHT22;9350;53.176;8.194;2022-12-18T00:47:48;-2.00;99.90
18444;DHT22;9350;53.176;8.194;2022-12-18T00:50:15;-2.10;99.90
18444;DHT22;9350;53.176;8.194;2022-12-18T00:52:41;-2.10;99.90
18444;DHT22;9350;53.176;8.194;2022-12-18T00:55:09;-2.10;99.90
18444;DHT22;9350;53.176;8.194;2022-12-18T00:57:36;-2.10;99.90
18444;DHT22;9350;53.176;8.194;2022-12-18T01:00:04;-2.10;99.90
18444;DHT22;9350;53.176;8.194;2022-12-18T01:02:32;-2.20;99.90
18444;DHT22;9350;53.176;8.194;2022-12-18T01:04:59;-2.20;99.90
18444;DHT22;9350;53.176;8.194;2022-12-18T01:07:26;-2.30;99.90
18444;DHT22;9350;53.176;8.194;2022-12-18T01:09:53;-2.20;99.90
18444;DHT22;9350;53.176;8.194;2022-12-18T01:12:19;-2.20;99.90
18444;DHT22;9350;53.176;8.194;2022-12-18T01:14:46;-2.30;99.90
18444;DHT22;9350;53.176;8.194;2022-12-18T01:17:13;-2.20;99.90
18444;DHT22;9350;53.176;8.194;2022-12-18T01:19:41;-2.40;99.90
18444;DHT22;9350;53.176;8.194;2022-12-18T01:22:08;-2.30;99.90
18444;DHT22;9350;53.176;8.194;2022-12-18T01:24:34;-2.30;99.90
18444;DHT22;9350;53.176;8.194;2022-12-18T01:27:01;-2.30;99.90
18444;DHT22;9350;53.176;8.194;2022-12-18T01:29:28;-2.50;99.90
18444;DHT22;9350;53.176;8.194;2022-12-18T01:31:55;-2.50;99.90
18444;DHT22;9350;53.176;8.194;2022-12-18T01:34:22;-2.60;99.90
18444;DHT22;9350;53.176;8.194;2022-12-18T01:36:50;-2.60;99.90
18444;DHT22;9350;53.176;8.194;2022-12-18T01:39:18;-2.70;99.90
18444;DHT22;9350;53.176;8.194;2022-12-18T01:41:45;-2.50;99.90
18444;DHT22;9350;53.176;8.194;2022-12-18T01:44:56;-2.70;99.90
18444;DHT22;9350;53.176;8.194;2022-12-18T01:47:26;-2.70;99.90
18444;DHT22;9350;53.176;8.194;2022-12-18T01:49:55;-2.80;99.90
18444;DHT22;9350;53.176;8.194;2022-12-18T01:52:24;-2.80;99.90
18444;DHT22;9350;53.176;8.194;2022-12-18T01:54:52;-2.90;99.90
18444;DHT22;9350;53.176;8.194;2022-12-18T01:57:19;-2.90;99.90
18444;DHT22;9350;53.176;8.194;2022-12-18T01:59:50;-3.00;99.90
18444;DHT22;9350;53.176;8.194;2022-12-18T02:02:19;-3.00;99.90
18444;DHT22;9350;53.176;8.194;2022-12-18T02:04:46;-3.00;99.90
18444;DHT22;9350;53.176;8.194;2022-12-18T02:07:17;-3.10;99.90
18444;DHT22;9350;53.176;8.194;2022-12-18T02:09:50;-3.00;99.90
18444;DHT22;9350;53.176;8.194;2022-12-18T02:12:19;-3.20;99.90
18444;DHT22;9350;53.176;8.194;2022-12-18T02:14:54;-3.10;99.90
18444;DHT22;9350;53.176;8.194;2022-12-18T02:17:31;-3.20;99.90
18444;DHT22;9350;53.176;8.194;2022-12-18T02:20:07;-3.20;99.90
18444;DHT22;9350;53.176;8.194;2022-12-18T02:22:45;-3.30;99.90
18444;DHT22;9350;53.176;8.194;2022-12-18T02:25:30;-3.40;99.90
18444;DHT22;9350;53.176;8.194;2022-12-18T02:28:04;-3.40;99.90
18444;DHT22;9350;53.176;8.194;2022-12-18T02:30:34;-3.40;99.90
18444;DHT22;9350;53.176;8.194;2022-12-18T02:33:04;-3.30;99.90
18444;DHT22;9350;53.176;8.194;2022-12-18T02:35:32;-3.40;99.90
18444;DHT22;9350;53.176;8.194;2022-12-18T02:38:00;-3.50;99.90
18444;DHT22;9350;53.176;8.194;2022-12-18T02:40:28;-3.60;99.90
18444;DHT22;9350;53.176;8.194;2022-12-18T02:42:56;-3.60;99.90
18444;DHT22;9350;53.176;8.194;2022-12-18T02:45:29;-3.60;99.90
18444;DHT22;9350;53.176;8.194;2022-12-18T02:47:56;-3.60;99.90
18444;DHT22;9350;53.176;8.194;2022-12-18T02:50:32;-3.70;99.90
18444;DHT22;9350;53.176;8.194;2022-12-18T02:53:08;-3.70;99.90
18444;DHT22;9350;53.176;8.194;2022-12-18T02:55:46;-3.70;99.90
18444;DHT22;9350;53.176;8.194;2022-12-18T02:58:19;-3.70;99.90
18444;DHT22;9350;53.176;8.194;2022-12-18T03:00:53;-3.60;99.90
18444;DHT22;9350;53.176;8.194;2022-12-18T03:03:26;-3.70;99.90
18444;DHT22;9350;53.176;8.194;2022-12-18T03:05:58;-3.60;99.90
18444;DHT22;9350;53.176;8.194;2022-12-18T03:08:29;-3.70;99.90
18444;DHT22;9350;53.176;8.194;2022-12-18T03:11:01;-3.60;99.90
18444;DHT22;9350;53.176;8.194;2022-12-18T03:13:31;-3.60;99.90
18444;DHT22;9350;53.176;8.194;2022-12-18T03:16:01;-3.70;99.90
18444;DHT22;9350;53.176;8.194;2022-12-18T03:18:32;-3.80;99.90
18444;DHT22;9350;53.176;8.194;2022-12-18T03:21:04;-3.80;99.90
18444;DHT22;9350;53.176;8.194;2022-12-18T03:23:36;-3.80;99.90
18444;DHT22;9350;53.176;8.194;2022-12-18T03:26:09;-3.90;99.90
18444;DHT22;9350;53.176;8.194;2022-12-18T03:28:39;-3.90;99.90
18444;DHT22;9350;53.176;8.194;2022-12-18T03:31:12;-3.90;99.90
18444;DHT22;9350;53.176;8.194;2022-12-18T03:33:44;-3.90;99.90
18444;DHT22;9350;53.176;8.194;2022-12-18T03:36:12;-3.80;99.90
18444;DHT22;9350;53.176;8.194;2022-12-18T03:38:39;-3.90;99.90
18444;DHT22;9350;53.176;8.194;2022-12-18T03:41:15;-3.90;99.90
18444;DHT22;9350;53.176;8.194;2022-12-18T03:43:49;-4.00;99.90
18444;DHT22;9350;53.176;8.194;2022-12-18T03:46:25;-4.00;99.90
18444;DHT22;9350;53.176;8.194;2022-12-18T03:49:00;-3.90;99.90
18444;DHT22;9350;53.176;8.194;2022-12-18T03:51:34;-4.00;99.90
18444;DHT22;9350;53.176;8.194;2022-12-18T03:54:05;-4.10;99.90
18444;DHT22;9350;53.176;8.194;2022-12-18T03:56:38;-4.10;99.90
18444;DHT22;9350;53.176;8.194;2022-12-18T03:59:06;-4.10;99.90
18444;DHT22;9350;53.176;8.194;2022-12-18T04:01:39;-4.20;99.90
18444;DHT22;9350;53.176;8.194;2022-12-18T04:04:08;-4.10;99.90
18444;DHT22;9350;53.176;8.194;2022-12-18T04:06:37;-4.20;99.90
18444;DHT22;9350;53.176;8.194;2022-12-18T04:09:05;-4.30;99.90
18444;DHT22;9350;53.176;8.194;2022-12-18T04:11:32;-4.30;99.90
18444;DHT22;9350;53.176;8.194;2022-12-18T04:13:59;-4.40;99.90
18444;DHT22;9350;53.176;8.194;2022-12-18T04:16:26;-4.40;99.90
18444;DHT22;9350;53.176;8.194;2022-12-18T04:18:54;-4.60;99.90
18444;DHT22;9350;53.176;8.194;2022-12-18T04:21:21;-4.50;99.90
18444;DHT22;9350;53.176;8.194;2022-12-18T04:23:48;-4.40;99.90
18444;DHT22;9350;53.176;8.194;2022-12-18T04:26:15;-4.30;99.90
18444;DHT22;9350;53.176;8.194;2022-12-18T04:28:41;-4.30;99.90
18444;DHT22;9350;53.176;8.194;2022-12-18T04:31:08;-4.30;99.90
18444;DHT22;9350;53.176;8.194;2022-12-18T04:33:35;-4.30;99.90
18444;DHT22;9350;53.176;8.194;2022-12-18T04:36:03;-4.30;99.90
18444;DHT22;9350;53.176;8.194;2022-12-18T04:38:30;-4.30;99.90
18444;DHT22;9350;53.176;8.194;2022-12-18T04:40:57;-4.30;99.90
18444;DHT22;9350;53.176;8.194;2022-12-18T04:43:24;-4.20;99.90
18444;DHT22;9350;53.176;8.194;2022-12-18T04:45:51;-4.20;99.90
18444;DHT22;9350;53.176;8.194;2022-12-18T04:48:18;-4.30;99.90
18444;DHT22;9350;53.176;8.194;2022-12-18T04:50:46;-4.50;99.90
18444;DHT22;9350;53.176;8.194;2022-12-18T04:53:14;-4.40;99.90
18444;DHT22;9350;53.176;8.194;2022-12-18T04:55:41;-4.40;99.90
18444;DHT22;9350;53.176;8.194;2022-12-18T04:58:08;-4.50;99.90
18444;DHT22;9350;53.176;8.194;2022-12-18T05:00:34;-4.40;99.90
18444;DHT22;9350;53.176;8.194;2022-12-18T05:03:01;-4.30;99.90
18444;DHT22;9350;53.176;8.194;2022-12-18T05:05:28;-4.40;99.90
18444;DHT22;9350;53.176;8.194;2022-12-18T05:07:55;-4.30;99.90
18444;DHT22;9350;53.176;8.194;2022-12-18T05:10:23;-4.50;99.90
18444;DHT22;9350;53.176;8.194;2022-12-18T05:12:49;-4.50;99.90
18444;DHT22;9350;53.176;8.194;2022-12-18T05:15:27;-4.40;99.90
18444;DHT22;9350;53.176;8.194;2022-12-18T05:17:54;-4.30;99.90
18444;DHT22;9350;53.176;8.194;2022-12-18T05:20:20;-4.40;99.90
18444;DHT22;9350;53.176;8.194;2022-12-18T05:22:47;-4.40;99.90
18444;DHT22;9350;53.176;8.194;2022-12-18T05:25:14;-4.40;99.90
18444;DHT22;9350;53.176;8.194;2022-12-18T05:27:43;-4.60;99.90
18444;DHT22;9350;53.176;8.194;2022-12-18T05:30:11;-4.60;99.90
18444;DHT22;9350;53.176;8.194;2022-12-18T05:32:38;-4.50;99.90
18444;DHT22;9350;53.176;8.194;2022-12-18T05:35:07;-4.50;99.90
18444;DHT22;9350;53.176;8.194;2022-12-18T05:37:34;-4.60;99.90
18444;DHT22;9350;53.176;8.194;2022-12-18T05:40:01;-4.70;99.90
18444;DHT22;9350;53.176;8.194;2022-12-18T05:42:27;-4.60;99.90
18444;DHT22;9350;53.176;8.194;2022-12-18T05:44:55;-4.70;99.90
18444;DHT22;9350;53.176;8.194;2022-12-18T05:47:22;-4.70;99.90
18444;DHT22;9350;53.176;8.194;2022-12-18T05:49:49;-4.70;99.90
18444;DHT22;9350;53.176;8.194;2022-12-18T05:52:15;-4.70;99.90
18444;DHT22;9350;53.176;8.194;2022-12-18T05:54:42;-4.60;99.90
18444;DHT22;9350;53.176;8.194;2022-12-18T05:57:09;-4.60;99.90
18444;DHT22;9350;53.176;8.194;2022-12-18T05:59:36;-4.50;99.90
18444;DHT22;9350;53.176;8.194;2022-12-18T06:02:04;-4.50;99.90
18444;DHT22;9350;53.176;8.194;2022-12-18T06:04:31;-4.50;99.90
18444;DHT22;9350;53.176;8.194;2022-12-18T06:06:57;-4.60;99.90
18444;DHT22;9350;53.176;8.194;2022-12-18T06:09:24;-4.60;99.90
18444;DHT22;9350;53.176;8.194;2022-12-18T06:11:51;-4.60;99.90
18444;DHT22;9350;53.176;8.194;2022-12-18T06:14:18;-4.60;99.90
18444;DHT22;9350;53.176;8.194;2022-12-18T06:16:45;-4.60;99.90
18444;DHT22;9350;53.176;8.194;2022-12-18T06:19:15;-4.70;99.90
18444;DHT22;9350;53.176;8.194;2022-12-18T06:21:42;-4.50;99.90
18444;DHT22;9350;53.176;8.194;2022-12-18T06:24:09;-4.60;99.90
18444;DHT22;9350;53.176;8.194;2022-12-18T06:26:37;-4.50;99.90
18444;DHT22;9350;53.176;8.194;2022-12-18T06:29:04;-4.60;99.90
18444;DHT22;9350;53.176;8.194;2022-12-18T06:31:31;-4.60;99.90
18444;DHT22;9350;53.176;8.194;2022-12-18T06:33:57;-4.60;99.90
18444;DHT22;9350;53.176;8.194;2022-12-18T06:36:25;-4.50;99.90
18444;DHT22;9350;53.176;8.194;2022-12-18T06:38:52;-4.40;99.90
18444;DHT22;9350;53.176;8.194;2022-12-18T06:41:20;-4.50;99.90
18444;DHT22;9350;53.176;8.194;2022-12-18T06:43:47;-4.50;99.90
18444;DHT22;9350;53.176;8.194;2022-12-18T06:46:14;-4.40;99.90
18444;DHT22;9350;53.176;8.194;2022-12-18T06:48:41;-4.40;99.90
18444;DHT22;9350;53.176;8.194;2022-12-18T06:51:07;-4.30;99.90
18444;DHT22;9350;53.176;8.194;2022-12-18T06:53:35;-4.20;99.90
18444;DHT22;9350;53.176;8.194;2022-12-18T06:56:03;-4.30;99.90
18444;DHT22;9350;53.176;8.194;2022-12-18T06:58:30;-4.20;99.90
18444;DHT22;9350;53.176;8.194;2022-12-18T07:00:59;-4.10;99.90
18444;DHT22;9350;53.176;8.194;2022-12-18T07:03:26;-4.30;99.90
18444;DHT22;9350;53.176;8.194;2022-12-18T07:05:53;-4.30;99.90
18444;DHT22;9350;53.176;8.194;2022-12-18T07:08:20;-4.40;99.90
18444;DHT22;9350;53.176;8.194;2022-12-18T07:10:48;-4.20;99.90
18444;DHT22;9350;53.176;8.194;2022-12-18T07:13:15;-4.30;99.90
18444;DHT22;9350;53.176;8.194;2022-12-18T07:15:42;-4.20;99.90
18444;DHT22;9350;53.176;8.194;2022-12-18T07:18:09;-4.40;99.90
18444;DHT22;9350;53.176;8.194;2022-12-18T07:20:36;-4.40;99.90
18444;DHT22;9350;53.176;8.194;2022-12-18T07:23:03;-4.50;99.90
18444;DHT22;9350;53.176;8.194;2022-12-18T07:25:33;-4.40;99.90
18444;DHT22;9350;53.176;8.194;2022-12-18T07:28:01;-4.50;99.90
18444;DHT22;9350;53.176;8.194;2022-12-18T07:30:27;-4.50;99.90
18444;DHT22;9350;53.176;8.194;2022-12-18T07:32:54;-4.50;99.90
18444;DHT22;9350;53.176;8.194;2022-12-18T07:35:21;-4.40;99.90
18444;DHT22;9350;53.176;8.194;2022-12-18T07:37:48;-4.50;99.90
18444;DHT22;9350;53.176;8.194;2022-12-18T07:40:15;-4.50;99.90
18444;DHT22;9350;53.176;8.194;2022-12-18T07:42:41;-4.30;99.90
18444;DHT22;9350;53.176;8.194;2022-12-18T07:45:10;-4.40;99.90
18444;DHT22;9350;53.176;8.194;2022-12-18T07:47:36;-4.40;99.90
18444;DHT22;9350;53.176;8.194;2022-12-18T07:50:04;-4.40;99.90
18444;DHT22;9350;53.176;8.194;2022-12-18T07:52:31;-4.40;99.90
18444;DHT22;9350;53.176;8.194;2022-12-18T07:54:58;-4.30;99.90
18444;DHT22;9350;53.176;8.194;2022-12-18T07:57:25;-4.30;99.90
18444;DHT22;9350;53.176;8.194;2022-12-18T07:59:51;-4.40;99.90
18444;DHT22;9350;53.176;8.194;2022-12-18T08:02:19;-4.20;99.90
18444;DHT22;9350;53.176;8.194;2022-12-18T08:04:46;-4.20;99.90
18444;DHT22;9350;53.176;8.194;2022-12-18T08:07:13;-4.20;99.90
18444;DHT22;9350;53.176;8.194;2022-12-18T08:09:39;-4.20;99.90
18444;DHT22;9350;53.176;8.194;2022-12-18T08:12:06;-4.20;99.90
18444;DHT22;9350;53.176;8.194;2022-12-18T08:14:33;-4.30;99.90
18444;DHT22;9350;53.176;8.194;2022-12-18T08:17:00;-4.30;99.90
18444;DHT22;9350;53.176;8.194;2022-12-18T08:19:28;-4.10;99.90
18444;DHT22;9350;53.176;8.194;2022-12-18T08:21:54;-4.20;99.90
18444;DHT22;9350;53.176;8.194;2022-12-18T08:24:21;-4.20;99.90
18444;DHT22;9350;53.176;8.194;2022-12-18T08:26:48;-4.20;99.90
18444;DHT22;9350;53.176;8.194;2022-12-18T08:29:16;-4.20;99.90
18444;DHT22;9350;53.176;8.194;2022-12-18T08:31:42;-4.20;99.90
18444;DHT22;9350;53.176;8.194;2022-12-18T08:34:09;-4.10;99.90
18444;DHT22;9350;53.176;8.194;2022-12-18T08:36:37;-4.10;99.90
18444;DHT22;9350;53.176;8.194;2022-12-18T08:39:04;-4.00;99.90
18444;DHT22;9350;53.176;8.194;2022-12-18T08:41:30;-4.00;99.90
18444;DHT22;9350;53.176;8.194;2022-12-18T08:43:57;-4.00;99.90
18444;DHT22;9350;53.176;8.194;2022-12-18T08:46:44;-3.90;99.90
18444;DHT22;9350;53.176;8.194;2022-12-18T08:49:11;-3.90;99.90
18444;DHT22;9350;53.176;8.194;2022-12-18T08:51:39;-3.80;99.90
18444;DHT22;9350;53.176;8.194;2022-12-18T08:54:06;-3.80;99.90
18444;DHT22;9350;53.176;8.194;2022-12-18T08:56:33;-3.70;99.90
18444;DHT22;9350;53.176;8.194;2022-12-18T08:59:00;-3.70;99.90
18444;DHT22;9350;53.176;8.194;2022-12-18T09:01:27;-3.60;99.90
18444;DHT22;9350;53.176;8.194;2022-12-18T09:03:54;-3.70;99.90
18444;DHT22;9350;53.176;8.194;2022-12-18T09:06:22;-3.60;99.90
18444;DHT22;9350;53.176;8.194;2022-12-18T09:08:50;-3.50;99.90
18444;DHT22;9350;53.176;8.194;2022-12-18T09:11:20;-3.50;99.90
18444;DHT22;9350;53.176;8.194;2022-12-18T09:13:47;-3.40;99.90
18444;DHT22;9350;53.176;8.194;2022-12-18T09:16:14;-3.30;99.90
18444;DHT22;9350;53.176;8.194;2022-12-18T09:18:41;-3.30;99.90
18444;DHT22;9350;53.176;8.194;2022-12-18T09:21:09;-3.30;99.90
18444;DHT22;9350;53.176;8.194;2022-12-18T09:23:36;-3.30;99.90
18444;DHT22;9350;53.176;8.194;2022-12-18T09:26:04;-3.30;99.90
18444;DHT22;9350;53.176;8.194;2022-12-18T09:28:30;-3.30;99.90
18444;DHT22;9350;53.176;8.194;2022-12-18T09:30:57;-3.20;99.90
18444;DHT22;9350;53.176;8.194;2022-12-18T09:33:24;-3.20;99.90
18444;DHT22;9350;53.176;8.194;2022-12-18T09:35:51;-3.20;99.90
18444;DHT22;9350;53.176;8.194;2022-12-18T09:38:19;-3.10;99.90
18444;DHT22;9350;53.176;8.194;2022-12-18T09:40:49;-3.20;99.90
18444;DHT22;9350;53.176;8.194;2022-12-18T09:43:19;-3.10;99.90
18444;DHT22;9350;53.176;8.194;2022-12-18T09:45:50;-3.10;99.90
18444;DHT22;9350;53.176;8.194;2022-12-18T09:48:21;-3.00;99.90
18444;DHT22;9350;53.176;8.194;2022-12-18T09:50:51;-3.00;99.90
18444;DHT22;9350;53.176;8.194;2022-12-18T09:53:24;-3.10;99.90
18444;DHT22;9350;53.176;8.194;2022-12-18T09:55:53;-3.00;99.90
18444;DHT22;9350;53.176;8.194;2022-12-18T09:58:26;-3.00;99.90
18444;DHT22;9350;53.176;8.194;2022-12-18T10:00:55;-2.90;99.90
18444;DHT22;9350;53.176;8.194;2022-12-18T10:03:22;-2.80;99.90
18444;DHT22;9350;53.176;8.194;2022-12-18T10:05:57;-2.80;99.90
18444;DHT22;9350;53.176;8.194;2022-12-18T10:08:35;-2.80;99.90
18444;DHT22;9350;53.176;8.194;2022-12-18T10:11:21;-2.70;99.90
18444;DHT22;9350;53.176;8.194;2022-12-18T10:13:52;-2.70;99.90
18444;DHT22;9350;53.176;8.194;2022-12-18T10:16:29;-2.70;99.90
18444;DHT22;9350;53.176;8.194;2022-12-18T10:19:11;-2.70;99.90
18444;DHT22;9350;53.176;8.194;2022-12-18T10:21:45;-2.70;99.90
18444;DHT22;9350;53.176;8.194;2022-12-18T10:24:20;-2.70;99.90
18444;DHT22;9350;53.176;8.194;2022-12-18T10:26:50;-2.60;99.90
18444;DHT22;9350;53.176;8.194;2022-12-18T10:29:20;-2.60;99.90
18444;DHT22;9350;53.176;8.194;2022-12-18T10:31:47;-2.50;99.90
18444;DHT22;9350;53.176;8.194;2022-12-18T10:34:16;-2.60;99.90
18444;DHT22;9350;53.176;8.194;2022-12-18T10:36:43;-2.50;99.90
18444;DHT22;9350;53.176;8.194;2022-12-18T10:39:17;-2.50;99.90
18444;DHT22;9350;53.176;8.194;2022-12-18T10:41:44;-2.40;99.90
18444;DHT22;9350;53.176;8.194;2022-12-18T10:44:18;-2.40;99.90
18444;DHT22;9350;53.176;8.194;2022-12-18T10:46:49;-2.40;99.90
18444;DHT22;9350;53.176;8.194;2022-12-18T10:49:22;-2.40;99.90
18444;DHT22;9350;53.176;8.194;2022-12-18T10:51:49;-2.40;99.90
18444;DHT22;9350;53.176;8.194;2022-12-18T10:54:19;-2.30;99.90
18444;DHT22;9350;53.176;8.194;2022-12-18T10:56:47;-2.30;99.90
18444;DHT22;9350;53.176;8.194;2022-12-18T10:59:15;-2.30;99.90
18444;DHT22;9350;53.176;8.194;2022-12-18T11:01:50;-2.30;99.90
18444;DHT22;9350;53.176;8.194;2022-12-18T11:04:20;-2.20;99.90
18444;DHT22;9350;53.176;8.194;2022-12-18T11:06:55;-2.20;99.90
18444;DHT22;9350;53.176;8.194;2022-12-18T11:09:24;-2.10;99.90
18444;DHT22;9350;53.176;8.194;2022-12-18T11:11:53;-2.00;99.90
18444;DHT22;9350;53.176;8.194;2022-12-18T11:14:23;-2.10;99.90
18444;DHT22;9350;53.176;8.194;2022-12-18T11:16:52;-2.00;99.90
18444;DHT22;9350;53.176;8.194;2022-12-18T11:19:24;-1.90;99.90
18444;DHT22;9350;53.176;8.194;2022-12-18T11:21:52;-1.80;99.90
18444;DHT22;9350;53.176;8.194;2022-12-18T11:24:22;-1.80;99.90
18444;DHT22;9350;53.176;8.194;2022-12-18T11:26:51;-1.80;99.90
18444;DHT22;9350;53.176;8.194;2022-12-18T11:29:31;-1.80;99.90
18444;DHT22;9350;53.176;8.194;2022-12-18T11:32:29;-1.70;99.90
18444;DHT22;9350;53.176;8.194;2022-12-18T11:35:01;-1.70;99.90
18444;DHT22;9350;53.176;8.194;2022-12-18T11:37:30;-1.70;99.90
18444;DHT22;9350;53.176;8.194;2022-12-18T11:40:00;-1.70;99.90
18444;DHT22;9350;53.176;8.194;2022-12-18T11:42:34;-1.60;99.90
18444;DHT22;9350;53.176;8.194;2022-12-18T11:45:23;-1.60;99.90
18444;DHT22;9350;53.176;8.194;2022-12-18T11:47:57;-1.60;99.90
18444;DHT22;9350;53.176;8.194;2022-12-18T11:50:30;-1.50;99.90
18444;DHT22;9350;53.176;8.194;2022-12-18T11:52:57;-1.50;99.90
18444;DHT22;9350;53.176;8.194;2022-12-18T11:55:31;-1.50;99.90
18444;DHT22;9350;53.176;8.194;2022-12-18T11:58:07;-1.50;99.90
18444;DHT22;9350;53.176;8.194;2022-12-18T12:00:42;-1.50;99.90
18444;DHT22;9350;53.176;8.194;2022-12-18T12:03:38;-1.60;99.90
18444;DHT22;9350;53.176;8.194;2022-12-18T12:06:11;-1.50;99.90
18444;DHT22;9350;53.176;8.194;2022-12-18T12:08:52;-1.60;99.90
18444;DHT22;9350;53.176;8.194;2022-12-18T12:11:26;-1.50;99.90
18444;DHT22;9350;53.176;8.194;2022-12-18T12:14:04;-1.50;99.90
18444;DHT22;9350;53.176;8.194;2022-12-18T12:16:39;-1.50;99.90
18444;DHT22;9350;53.176;8.194;2022-12-18T12:19:23;-1.50;99.90
18444;DHT22;9350;53.176;8.194;2022-12-18T12:21:59;-1.50;99.90
18444;DHT22;9350;53.176;8.194;2022-12-18T12:24:36;-1.40;99.90
18444;DHT22;9350;53.176;8.194;2022-12-18T12:27:10;-1.50;99.90
18444;DHT22;9350;53.176;8.194;2022-12-18T12:29:49;-1.50;99.90
18444;DHT22;9350;53.176;8.194;2022-12-18T12:32:33;-1.50;99.90
18444;DHT22;9350;53.176;8.194;2022-12-18T12:35:14;-1.50;99.90
18444;DHT22;9350;53.176;8.194;2022-12-18T12:38:03;-1.40;99.90
18444;DHT22;9350;53.176;8.194;2022-12-18T12:40:35;-1.40;99.90
18444;DHT22;9350;53.176;8.194;2022-12-18T12:43:10;-1.40;99.90
18444;DHT22;9350;53.176;8.194;2022-12-18T12:45:44;-1.40;99.90
18444;DHT22;9350;53.176;8.194;2022-12-18T12:48:19;-1.40;99.90
18444;DHT22;9350;53.176;8.194;2022-12-18T12:50:50;-1.40;99.90
18444;DHT22;9350;53.176;8.194;2022-12-18T12:53:23;-1.40;99.90
18444;DHT22;9350;53.176;8.194;2022-12-18T12:55:52;-1.40;99.90
18444;DHT22;9350;53.176;8.194;2022-12-18T12:58:26;-1.40;99.90
18444;DHT22;9350;53.176;8.194;2022-12-18T13:01:05;-1.40;99.90
18444;DHT22;9350;53.176;8.194;2022-12-18T13:03:41;-1.30;99.90
18444;DHT22;9350;53.176;8.194;2022-12-18T13:06:15;-1.30;99.90
18444;DHT22;9350;53.176;8.194;2022-12-18T13:08:55;-1.30;99.90
18444;DHT22;9350;53.176;8.194;2022-12-18T13:11:35;-1.30;99.90
18444;DHT22;9350;53.176;8.194;2022-12-18T13:14:26;-1.30;99.90
18444;DHT22;9350;53.176;8.194;2022-12-18T13:17:15;-1.30;99.90
18444;DHT22;9350;53.176;8.194;2022-12-18T13:19:43;-1.30;99.90
18444;DHT22;9350;53.176;8.194;2022-12-18T13:22:23;-1.20;99.90
18444;DHT22;9350;53.176;8.194;2022-12-18T13:24:50;-1.30;99.90
18444;DHT22;9350;53.176;8.194;2022-12-18T13:27:46;-1.30;99.90
18444;DHT22;9350;53.176;8.194;2022-12-18T13:30:42;-1.30;99.90
18444;DHT22;9350;53.176;8.194;2022-12-18T13:36:31;-1.30;99.90
18444;DHT22;9350;53.176;8.194;2022-12-18T13:39:25;-1.30;99.90
18444;DHT22;9350;53.176;8.194;2022-12-18T13:45:35;-1.20;99.90
18444;DHT22;9350;53.176;8.194;2022-12-18T13:48:03;-1.30;99.90
18444;DHT22;9350;53.176;8.194;2022-12-18T13:50:30;-1.30;99.90
18444;DHT22;9350;53.176;8.194;2022-12-18T13:52:57;-1.20;99.90
18444;DHT22;9350;53.176;8.194;2022-12-18T13:55:25;-1.30;99.90
18444;DHT22;9350;53.176;8.194;2022-12-18T13:58:03;-1.30;99.90
18444;DHT22;9350;53.176;8.194;2022-12-18T14:00:30;-1.30;99.90
18444;DHT22;9350;53.176;8.194;2022-12-18T14:02:59;-1.30;99.90
18444;DHT22;9350;53.176;8.194;2022-12-18T14:05:27;-1.40;99.90
18444;DHT22;9350;53.176;8.194;2022-12-18T14:07:55;-1.30;99.90
18444;DHT22;9350;53.176;8.194;2022-12-18T14:10:27;-1.30;99.90
18444;DHT22;9350;53.176;8.194;2022-12-18T14:12:54;-1.30;99.90
18444;DHT22;9350;53.176;8.194;2022-12-18T14:15:29;-1.30;99.90
18444;DHT22;9350;53.176;8.194;2022-12-18T14:18:00;-1.30;99.90
18444;DHT22;9350;53.176;8.194;2022-12-18T14:20:30;-1.30;99.90
18444;DHT22;9350;53.176;8.194;2022-12-18T14:22:58;-1.30;99.90
18444;DHT22;9350;53.176;8.194;2022-12-18T14:25:28;-1.30;99.90
18444;DHT22;9350;53.176;8.194;2022-12-18T14:28:08;-1.30;99.90
18444;DHT22;9350;53.176;8.194;2022-12-18T14:30:39;-1.30;99.90
18444;DHT22;9350;53.176;8.194;2022-12-18T14:33:10;-1.30;99.90
18444;DHT22;9350;53.176;8.194;2022-12-18T14:35:39;-1.30;99.90
18444;DHT22;9350;53.176;8.194;2022-12-18T14:38:24;-1.30;99.90
18444;DHT22;9350;53.176;8.194;2022-12-18T14:40:59;-1.30;99.90
18444;DHT22;9350;53.176;8.194;2022-12-18T14:43:27;-1.40;99.90
18444;DHT22;9350;53.176;8.194;2022-12-18T14:45:55;-1.30;99.90
18444;DHT22;9350;53.176;8.194;2022-12-18T14:48:33;-1.40;99.90
18444;DHT22;9350;53.176;8.194;2022-12-18T14:51:02;-1.40;99.90
18444;DHT22;9350;53.176;8.194;2022-12-18T14:53:35;-1.40;99.90
18444;DHT22;9350;53.176;8.194;2022-12-18T14:56:14;-1.40;99.90
18444;DHT22;9350;53.176;8.194;2022-12-18T14:58:48;-1.40;99.90
18444;DHT22;9350;53.176;8.194;2022-12-18T15:01:23;-1.40;99.90
18444;DHT22;9350;53.176;8.194;2022-12-18T15:03:51;-1.40;99.90
18444;DHT22;9350;53.176;8.194;2022-12-18T15:06:26;-1.40;99.90
18444;DHT22;9350;53.176;8.194;2022-12-18T15:08:53;-1.40;99.90
18444;DHT22;9350;53.176;8.194;2022-12-18T15:11:35;-1.30;99.90
18444;DHT22;9350;53.176;8.194;2022-12-18T15:14:21;-1.40;99.90
18444;DHT22;9350;53.176;8.194;2022-12-18T15:16:51;-1.40;99.90
18444;DHT22;9350;53.176;8.194;2022-12-18T15:19:19;-1.30;99.90
18444;DHT22;9350;53.176;8.194;2022-12-18T15:21:46;-1.40;99.90
18444;DHT22;9350;53.176;8.194;2022-12-18T15:24:17;-1.40;99.90
18444;DHT22;9350;53.176;8.194;2022-12-18T15:26:46;-1.50;99.90
18444;DHT22;9350;53.176;8.194;2022-12-18T15:29:19;-1.50;99.90
18444;DHT22;9350;53.176;8.194;2022-12-18T15:31:58;-1.40;99.90
18444;DHT22;9350;53.176;8.194;2022-12-18T15:34:25;-1.40;99.90
18444;DHT22;9350;53.176;8.194;2022-12-18T15:36:53;-1.40;99.90
18444;DHT22;9350;53.176;8.194;2022-12-18T15:39:20;-1.40;99.90
18444;DHT22;9350;53.176;8.194;2022-12-18T15:41:48;-1.40;99.90
18444;DHT22;9350;53.176;8.194;2022-12-18T15:44:32;-1.40;99.90
18444;DHT22;9350;53.176;8.194;2022-12-18T15:46:59;-1.40;99.90
18444;DHT22;9350;53.176;8.194;2022-12-18T15:49:26;-1.30;99.90
18444;DHT22;9350;53.176;8.194;2022-12-18T15:51:54;-1.30;99.90
18444;DHT22;9350;53.176;8.194;2022-12-18T15:54:22;-1.30;99.90
18444;DHT22;9350;53.176;8.194;2022-12-18T15:57:04;-1.30;99.90
18444;DHT22;9350;53.176;8.194;2022-12-18T15:59:45;-1.30;99.90
18444;DHT22;9350;53.176;8.194;2022-12-18T16:02:15;-1.30;99.90
18444;DHT22;9350;53.176;8.194;2022-12-18T16:04:43;-1.30;99.90
18444;DHT22;9350;53.176;8.194;2022-12-18T16:07:11;-1.30;99.90
18444;DHT22;9350;53.176;8.194;2022-12-18T16:09:38;-1.30;99.90
18444;DHT22;9350;53.176;8.194;2022-12-18T16:12:08;-1.30;99.90